createdAt,value
2023-01-27T00:01:42.199Z,1.23
2023-01-27T00:06:48.221Z,1.19
2023-01-27T00:12:10.136Z,0.78
2023-01-27T00:17:14.609Z,-0.21
2023-01-27T00:22:38.274Z,1.20
2023-01-27T00:27:43.499Z,1.90
2023-01-27T00:33:05.365Z,0.47
2023-01-27T00:38:11.401Z,0.79
2023-01-27T00:43:15.843Z,0.93
2023-01-27T00:48:20.597Z,1.57
2023-01-27T00:53:26.910Z,2.17
2023-01-27T00:58:31.637Z,1.68
2023-01-27T01:03:37.750Z,2.22
2023-01-27T01:08:44.680Z,2.15
2023-01-27T01:13:49.625Z,1.39
2023-01-27T01:18:54.950Z,2.02
2023-01-27T01:24:00.970Z,1.69
2023-01-27T01:29:05.922Z,1.79
2023-01-27T01:34:10.787Z,2.21
2023-01-27T01:39:16.634Z,2.26
2023-01-27T01:44:24.088Z,1.83
2023-01-27T01:49:34.091Z,2.41
2023-01-27T01:54:44.438Z,2.33
2023-01-27T01:59:54.217Z,2.87
2023-01-27T02:05:04.532Z,2.43
2023-01-27T02:10:12.113Z,2.10
2023-01-27T02:15:17.405Z,1.15
2023-01-27T02:20:29.461Z,1.01
2023-01-27T02:25:45.134Z,1.14
2023-01-27T02:30:50.090Z,1.35
2023-01-27T02:36:02.470Z,0.89
2023-01-27T02:41:15.890Z,0.81
2023-01-27T02:46:20.831Z,1.45
2023-01-27T02:51:25.485Z,1.79
2023-01-27T02:56:31.686Z,1.75
2023-01-27T03:01:36.317Z,1.94
2023-01-27T03:06:40.876Z,1.73
2023-01-27T03:12:04.924Z,2.20
2023-01-27T03:17:26.782Z,1.94
2023-01-27T03:22:31.515Z,1.85
2023-01-27T03:27:40.490Z,1.41
2023-01-27T03:33:04.129Z,1.40
2023-01-27T03:38:44.732Z,2.37
2023-01-27T03:44:08.526Z,1.73
2023-01-27T03:49:13.210Z,1.13
2023-01-27T03:54:17.850Z,1.69
2023-01-27T03:59:23.900Z,1.74
2023-01-27T04:04:45.628Z,1.10
2023-01-27T04:09:50.574Z,0.92
2023-01-27T04:14:57.145Z,0.99
2023-01-27T04:20:01.276Z,1.42
2023-01-27T04:25:06.577Z,1.44
2023-01-27T04:30:13.860Z,1.26
2023-01-27T04:35:20.103Z,1.82
2023-01-27T04:40:26.252Z,1.17
2023-01-27T04:45:32.195Z,1.46
2023-01-27T04:50:36.649Z,1.37
2023-01-27T04:55:49.955Z,1.36
2023-01-27T05:00:55.879Z,1.51
2023-01-27T05:05:59.911Z,1.76
2023-01-27T05:11:04.382Z,0.85
2023-01-27T05:16:16.261Z,0.66
2023-01-27T05:21:22.700Z,0.99
2023-01-27T05:26:28.745Z,0.72
2023-01-27T05:31:34.843Z,1.05
2023-01-27T05:36:39.483Z,1.10
2023-01-27T05:41:43.916Z,1.05
2023-01-27T05:46:49.804Z,0.62
2023-01-27T05:51:54.572Z,0.98
2023-01-27T05:56:59.243Z,0.80
2023-01-27T06:02:05.444Z,0.81
2023-01-27T06:07:10.173Z,0.90
2023-01-27T06:12:14.552Z,0.61
2023-01-27T06:17:20.373Z,0.27
2023-01-27T06:22:24.896Z,0.23
2023-01-27T06:27:30.552Z,1.08
2023-01-27T06:32:37.923Z,0.86
2023-01-27T06:37:42.849Z,0.29
2023-01-27T06:42:47.410Z,0.48
2023-01-27T06:47:58.343Z,1.00
2023-01-27T06:53:03.849Z,0.72
2023-01-27T06:58:08.408Z,0.66
2023-01-27T07:08:17.918Z,0.38
2023-01-27T07:13:22.513Z,0.63
2023-01-27T07:18:28.411Z,0.35
2023-01-27T07:23:32.427Z,0.74
2023-01-27T07:28:36.784Z,0.59
2023-01-27T07:33:42.689Z,1.08
2023-01-27T07:38:50.214Z,0.48
2023-01-27T07:43:54.639Z,0.22
2023-01-27T07:49:02.672Z,1.06
2023-01-27T07:54:07.524Z,1.02
2023-01-27T07:59:11.953Z,1.06
2023-01-27T08:04:17.890Z,0.35
2023-01-27T08:09:22.273Z,2.01
2023-01-27T08:14:26.751Z,1.39
2023-01-27T08:19:32.654Z,1.43
2023-01-27T08:24:36.777Z,1.14
2023-01-27T08:29:41.124Z,0.20
2023-01-27T08:34:46.923Z,1.37
2023-01-27T08:39:51.006Z,1.35
2023-01-27T08:44:55.532Z,1.73
2023-01-27T08:50:01.388Z,1.79
2023-01-27T08:55:06.594Z,1.56
2023-01-27T09:00:13.768Z,0.96
2023-01-27T09:05:21.601Z,1.46
2023-01-27T09:10:26.075Z,0.79
2023-01-27T09:15:30.685Z,1.85
2023-01-27T09:20:37.404Z,1.54
2023-01-27T09:25:41.789Z,1.79
2023-01-27T09:30:47.051Z,1.33
2023-01-27T09:35:59.562Z,1.30
2023-01-27T09:41:24.053Z,1.73
2023-01-27T09:46:54.644Z,2.16
2023-01-27T09:52:18.784Z,1.32
2023-01-27T09:57:34.371Z,0.98
2023-01-27T10:02:56.740Z,1.52
2023-01-27T10:08:28.404Z,0.97
2023-01-27T10:13:44.937Z,1.49
2023-01-27T10:19:10.521Z,2.03
2023-01-27T10:24:29.949Z,2.56
2023-01-27T10:29:41.700Z,2.77
2023-01-27T10:34:52.106Z,1.61
2023-01-27T10:40:06.587Z,1.93
2023-01-27T10:45:24.025Z,2.12
2023-01-27T10:50:30.962Z,3.39
2023-01-27T10:55:43.359Z,2.83
2023-01-27T11:01:19.195Z,2.29
2023-01-27T11:06:19.103Z,2.10
2023-01-27T11:11:44.321Z,2.55
2023-01-27T11:16:52.357Z,2.09
2023-01-27T11:22:07.212Z,1.59
2023-01-27T11:27:25.735Z,2.86
2023-01-27T11:32:43.730Z,2.11
2023-01-27T11:37:50.797Z,2.18
2023-01-27T11:42:58.449Z,2.20
2023-01-27T11:48:04.791Z,2.64
2023-01-27T11:53:16.733Z,1.92
2023-01-27T11:58:26.858Z,2.28
2023-01-27T12:03:47.505Z,1.82
2023-01-27T12:08:51.841Z,2.06
2023-01-27T12:14:00.334Z,2.82
2023-01-27T12:19:16.459Z,2.44
2023-01-27T12:24:29.538Z,2.23
2023-01-27T12:29:42.168Z,2.11
2023-01-27T12:34:50.107Z,1.65
2023-01-27T12:40:00.541Z,1.11
2023-01-27T12:45:25.568Z,1.27
2023-01-27T12:50:32.655Z,1.32
2023-01-27T12:55:40.330Z,1.61
2023-01-27T13:00:48.300Z,2.19
2023-01-27T13:05:56.754Z,1.69
2023-01-27T13:11:03.446Z,2.00
2023-01-27T13:16:19.202Z,2.03
2023-01-27T13:21:26.716Z,1.53
2023-01-27T13:26:33.980Z,1.46
2023-01-27T13:31:47.305Z,1.08
2023-01-27T13:36:56.813Z,0.82
2023-01-27T13:42:11.985Z,0.63
2023-01-27T13:47:21.906Z,0.70
2023-01-27T13:52:26.812Z,0.60
2023-01-27T13:58:01.417Z,0.36
2023-01-27T14:03:36.816Z,0.41
2023-01-27T14:08:58.639Z,0.58
2023-01-27T14:14:22.861Z,0.13
2023-01-27T14:19:38.438Z,0.73
2023-01-27T14:24:51.350Z,0.26
2023-01-27T14:30:03.838Z,0.10
2023-01-27T14:35:27.193Z,0.44
2023-01-27T14:40:36.682Z,0.28
2023-01-27T14:45:45.448Z,0.43
2023-01-27T14:51:04.744Z,1.11
2023-01-27T14:56:17.511Z,0.84
2023-01-27T15:01:35.099Z,0.97
2023-01-27T15:06:47.396Z,1.19
2023-01-27T15:12:13.805Z,0.47
2023-01-27T15:17:27.158Z,0.76
2023-01-27T15:22:45.839Z,-0.16
2023-01-27T15:27:54.530Z,0.33
2023-01-27T15:32:59.591Z,0.23
2023-01-27T15:38:30.696Z,-0.18
2023-01-27T15:43:40.207Z,-0.62
2023-01-27T15:48:46.663Z,-0.06
2023-01-27T15:53:55.687Z,-0.39
2023-01-27T15:59:06.668Z,-0.66
2023-01-27T16:04:17.862Z,-0.69
2023-01-27T16:09:33.956Z,-0.68
2023-01-27T16:14:46.212Z,-0.77
2023-01-27T16:20:20.983Z,-0.67
2023-01-27T16:25:37.332Z,-0.21
2023-01-27T16:30:48.375Z,0.17
2023-01-27T16:35:54.889Z,0.06
2023-01-27T16:41:03.735Z,-0.17
2023-01-27T16:46:28.012Z,0.20
2023-01-27T16:51:32.972Z,0.16
2023-01-27T16:56:39.070Z,0.39
2023-01-27T17:01:48.526Z,0.05
2023-01-27T17:06:54.363Z,0.31
2023-01-27T17:12:00.771Z,-0.26
2023-01-27T17:17:07.218Z,0.14
2023-01-27T17:22:23.820Z,0.27
2023-01-27T17:27:34.071Z,0.60
2023-01-27T17:32:41.507Z,0.21
2023-01-27T17:37:45.990Z,0.53
2023-01-27T17:42:51.789Z,0.31
2023-01-27T17:47:58.926Z,0.57
2023-01-27T17:53:05.960Z,0.31
2023-01-27T17:58:24.484Z,0.37
2023-01-27T18:03:34.751Z,-0.26
2023-01-27T18:08:40.286Z,-0.27
2023-01-27T18:13:46.196Z,-0.01
2023-01-27T18:18:52.991Z,-0.07
2023-01-27T18:23:59.761Z,0.84
2023-01-27T18:29:08.975Z,0.05
2023-01-27T18:34:24.084Z,0.35
2023-01-27T18:39:34.630Z,0.72
2023-01-27T18:44:40.658Z,0.77
2023-01-27T18:49:45.840Z,0.61
2023-01-27T18:54:50.826Z,0.22
2023-01-27T18:59:56.840Z,0.10
2023-01-27T19:05:01.330Z,0.13
2023-01-27T19:10:07.860Z,0.47
2023-01-27T19:15:16.047Z,0.39
2023-01-27T19:20:23.252Z,0.48
2023-01-27T19:25:30.821Z,0.47
2023-01-27T19:30:37.365Z,0.69
2023-01-27T19:35:43.821Z,0.17
2023-01-27T19:40:48.264Z,0.17
2023-01-27T19:45:54.545Z,-0.37
2023-01-27T19:50:59.988Z,0.43
2023-01-27T19:56:04.967Z,0.13
2023-01-27T20:01:11.657Z,0.32
2023-01-27T20:06:18.298Z,-0.48
2023-01-27T20:11:32.964Z,-0.48
2023-01-27T20:16:40.133Z,-0.30
2023-01-27T20:21:46.312Z,-0.42
2023-01-27T20:26:50.878Z,-0.35
2023-01-27T20:31:56.825Z,-0.11
2023-01-27T20:37:02.444Z,-0.26
2023-01-27T20:42:12.508Z,-0.41
2023-01-27T20:47:18.526Z,-0.62
2023-01-27T20:52:26.222Z,-0.10
2023-01-27T20:57:31.317Z,-0.52
2023-01-27T21:02:37.160Z,-0.19
2023-01-27T21:07:41.111Z,-0.56
2023-01-27T21:12:46.355Z,-0.54
2023-01-27T21:17:53.527Z,0.01
2023-01-27T21:22:57.983Z,-0.32
2023-01-27T21:28:02.486Z,-0.61
2023-01-27T21:33:08.522Z,-0.80
2023-01-27T21:38:57.612Z,-0.95
2023-01-27T21:45:54.276Z,-0.90
2023-01-27T22:05:39.430Z,-0.27
2023-01-27T22:10:44.215Z,-0.59
2023-01-27T22:15:57.058Z,-0.37
2023-01-27T22:21:41.015Z,-0.25
2023-01-27T22:27:27.777Z,-0.47
2023-01-27T22:32:37.384Z,-0.60
2023-01-27T22:37:44.694Z,-0.41
2023-01-27T22:42:50.532Z,-0.06
2023-01-27T22:47:56.460Z,-0.50
2023-01-27T22:53:01.014Z,-0.37
2023-01-27T22:58:05.488Z,-0.60
2023-01-27T23:03:11.399Z,0.15
2023-01-27T23:08:16.537Z,-0.45
2023-01-27T23:13:21.786Z,0.06
2023-01-27T23:18:27.930Z,0.39
2023-01-27T23:23:32.364Z,0.44
2023-01-27T23:28:38.990Z,-0.39
2023-01-27T23:33:46.595Z,-0.70
2023-01-27T23:38:51.220Z,0.11
2023-01-27T23:43:56.842Z,-0.40
2023-01-27T23:49:02.606Z,-0.30
2023-01-27T23:54:07.145Z,0.01
2023-01-27T23:59:13.292Z,0.11
